createdAt,value
2022-08-07T00:01:44.306Z,23.97
2022-08-07T00:03:28.512Z,23.94
2022-08-07T00:05:08.803Z,23.91
2022-08-07T00:06:45.620Z,23.88
2022-08-07T00:08:23.753Z,23.85
2022-08-07T00:10:19.055Z,23.84
2022-08-07T00:11:54.036Z,23.83
2022-08-07T00:13:27.832Z,23.82
2022-08-07T00:15:00.177Z,23.82
2022-08-07T00:16:31.947Z,23.77
2022-08-07T00:18:03.846Z,23.71
2022-08-07T00:20:00.903Z,23.68
2022-08-07T00:21:56.705Z,23.60
2022-08-07T00:23:21.125Z,23.48
2022-08-07T00:24:53.794Z,23.36
2022-08-07T00:26:49.419Z,23.24
2022-08-07T00:28:17.037Z,23.14
2022-08-07T00:29:53.611Z,23.10
2022-08-07T00:31:37.309Z,23.15
2022-08-07T00:33:12.882Z,23.20
2022-08-07T00:34:49.520Z,23.27
2022-08-07T00:36:22.386Z,23.31
2022-08-07T00:37:56.084Z,23.32
2022-08-07T00:39:28.627Z,23.34
2022-08-07T00:41:01.518Z,23.31
2022-08-07T00:42:33.583Z,23.27
2022-08-07T00:44:08.537Z,23.31
2022-08-07T00:45:40.744Z,23.31
2022-08-07T00:47:15.785Z,23.26
2022-08-07T00:49:04.153Z,23.26
2022-08-07T00:50:43.609Z,23.28
2022-08-07T00:52:22.719Z,23.33
2022-08-07T00:53:56.935Z,23.39
2022-08-07T00:56:00.431Z,23.44
2022-08-07T00:57:27.598Z,23.48
2022-08-07T00:59:07.053Z,23.38
2022-08-07T01:00:39.559Z,23.32
2022-08-07T01:02:28.804Z,23.28
2022-08-07T01:04:01.538Z,23.25
2022-08-07T01:05:36.575Z,23.24
2022-08-07T01:07:10.130Z,23.23
2022-08-07T01:08:43.301Z,23.21
2022-08-07T01:10:24.861Z,23.17
2022-08-07T01:12:23.708Z,23.14
2022-08-07T01:13:55.954Z,23.07
2022-08-07T01:15:35.652Z,23.08
2022-08-07T01:17:19.667Z,23.06
2022-08-07T01:18:51.323Z,23.05
2022-08-07T01:20:25.248Z,23.06
2022-08-07T01:22:03.086Z,23.06
2022-08-07T01:23:38.574Z,23.04
2022-08-07T01:25:40.306Z,23.02
2022-08-07T01:27:03.578Z,22.96
2022-08-07T01:28:36.308Z,22.90
2022-08-07T01:30:09.662Z,22.85
2022-08-07T01:31:48.181Z,22.86
2022-08-07T01:33:20.367Z,22.87
2022-08-07T01:34:54.171Z,22.84
2022-08-07T01:36:33.306Z,22.84
2022-08-07T01:38:05.753Z,22.84
2022-08-07T01:39:46.865Z,22.89
2022-08-07T01:41:26.310Z,22.94
2022-08-07T01:42:59.261Z,22.97
2022-08-07T01:44:31.086Z,23.01
2022-08-07T01:46:03.951Z,23.07
2022-08-07T01:48:20.416Z,23.11
2022-08-07T01:49:55.828Z,23.14
2022-08-07T01:52:02.327Z,23.20
2022-08-07T01:55:55.763Z,23.31
2022-08-07T01:58:01.035Z,23.30
2022-08-07T02:12:53.173Z,23.17
2022-08-07T02:14:36.102Z,23.17
2022-08-07T02:16:12.651Z,23.14
2022-08-07T02:17:49.238Z,23.16
2022-08-07T02:20:04.108Z,23.16
2022-08-07T02:21:13.774Z,23.14
2022-08-07T02:22:54.877Z,23.15
2022-08-07T02:24:29.714Z,23.13
2022-08-07T02:26:26.653Z,23.09
2022-08-07T02:27:54.032Z,23.01
2022-08-07T02:29:26.843Z,22.96
2022-08-07T02:30:58.637Z,22.91
2022-08-07T02:32:30.581Z,22.82
2022-08-07T02:34:11.223Z,22.72
2022-08-07T02:36:29.408Z,22.71
2022-08-07T02:37:44.003Z,22.70
2022-08-07T02:39:42.493Z,22.67
2022-08-07T02:41:07.956Z,22.65
2022-08-07T02:42:42.375Z,22.64
2022-08-07T02:44:13.971Z,22.63
2022-08-07T02:45:58.511Z,22.63
2022-08-07T02:47:45.107Z,22.63
2022-08-07T02:49:28.940Z,22.66
2022-08-07T02:51:28.822Z,22.76
2022-08-07T02:53:10.829Z,22.78
2022-08-07T02:54:43.235Z,22.80
2022-08-07T02:56:21.180Z,22.83
2022-08-07T02:57:54.332Z,22.91
2022-08-07T02:59:27.717Z,22.97
2022-08-07T03:00:59.574Z,23.02
2022-08-07T03:02:31.807Z,23.04
2022-08-07T03:04:07.064Z,23.10
2022-08-07T03:05:39.395Z,23.14
2022-08-07T03:07:12.125Z,23.18
2022-08-07T03:08:44.071Z,23.24
2022-08-07T03:10:17.093Z,23.25
2022-08-07T03:11:52.521Z,23.20
2022-08-07T03:13:29.703Z,23.03
2022-08-07T03:15:10.746Z,22.87
2022-08-07T03:16:43.744Z,22.76
2022-08-07T03:18:17.468Z,22.66
2022-08-07T03:19:54.452Z,22.58
2022-08-07T03:21:27.177Z,22.54
2022-08-07T03:22:58.791Z,22.35
2022-08-07T03:24:30.541Z,22.23
2022-08-07T03:26:03.388Z,22.21
2022-08-07T03:28:08.827Z,22.19
2022-08-07T03:29:28.556Z,22.16
2022-08-07T03:31:19.137Z,22.09
2022-08-07T03:32:58.335Z,22.09
2022-08-07T03:34:30.577Z,22.09
2022-08-07T03:36:02.860Z,22.10
2022-08-07T03:37:46.270Z,22.11
2022-08-07T03:39:46.144Z,22.07
2022-08-07T03:41:17.611Z,22.11
2022-08-07T03:42:49.425Z,22.17
2022-08-07T03:44:21.742Z,22.24
2022-08-07T03:46:10.606Z,22.33
2022-08-07T03:48:12.494Z,22.36
2022-08-07T03:49:57.500Z,22.37
2022-08-07T03:51:47.518Z,22.39
2022-08-07T03:59:09.455Z,22.22
2022-08-07T04:00:46.489Z,22.19
2022-08-07T04:02:24.533Z,22.17
2022-08-07T04:03:56.539Z,22.16
2022-08-07T04:05:39.452Z,22.19
2022-08-07T04:07:17.348Z,22.16
2022-08-07T04:08:49.814Z,22.02
2022-08-07T04:10:22.269Z,21.98
2022-08-07T04:12:25.208Z,21.86
2022-08-07T04:14:10.347Z,21.67
2022-08-07T04:15:39.112Z,21.59
2022-08-07T04:17:16.489Z,21.56
2022-08-07T04:18:59.255Z,21.53
2022-08-07T04:20:35.310Z,21.59
2022-08-07T04:22:12.233Z,21.62
2022-08-07T04:24:07.233Z,21.63
2022-08-07T04:25:41.120Z,21.62
2022-08-07T04:27:20.246Z,21.66
2022-08-07T04:28:52.515Z,21.75
2022-08-07T04:30:43.834Z,21.88
2022-08-07T04:32:16.554Z,22.08
2022-08-07T04:33:55.017Z,22.28
2022-08-07T04:35:35.438Z,22.46
2022-08-07T04:37:08.110Z,22.55
2022-08-07T04:38:51.951Z,22.61
2022-08-07T04:40:26.768Z,22.72
2022-08-07T04:42:02.559Z,22.84
2022-08-07T04:44:13.090Z,22.83
2022-08-07T04:45:44.392Z,22.93
2022-08-07T04:47:58.843Z,23.04
2022-08-07T04:49:24.696Z,23.15
2022-08-07T04:51:00.808Z,23.21
2022-08-07T04:52:46.657Z,23.33
2022-08-07T04:54:30.062Z,23.45
2022-08-07T04:58:13.248Z,23.58
2022-08-07T04:58:27.357Z,23.66
2022-08-07T05:00:12.345Z,23.68
2022-08-07T05:01:53.720Z,23.85
2022-08-07T05:03:59.976Z,23.90
2022-08-07T05:05:53.554Z,23.98
2022-08-07T05:07:21.307Z,23.97
2022-08-07T05:09:09.976Z,23.97
2022-08-07T05:10:48.836Z,24.11
2022-08-07T05:12:26.848Z,24.23
2022-08-07T05:14:55.283Z,24.30
2022-08-07T05:15:55.084Z,24.36
2022-08-07T05:17:52.501Z,24.38
2022-08-07T05:19:19.731Z,24.41
2022-08-07T05:21:05.194Z,24.45
2022-08-07T05:22:36.914Z,24.49
2022-08-07T05:24:10.372Z,24.50
2022-08-07T05:26:11.203Z,24.51
2022-08-07T05:28:16.030Z,24.50
2022-08-07T05:29:27.270Z,24.52
2022-08-07T05:31:11.840Z,24.49
2022-08-07T05:32:47.885Z,24.46
2022-08-07T05:34:20.097Z,24.46
2022-08-07T05:35:58.040Z,24.46
2022-08-07T05:37:30.650Z,24.48
2022-08-07T05:40:05.889Z,24.49
2022-08-07T05:41:05.540Z,24.51
2022-08-07T05:42:56.144Z,24.54
2022-08-07T05:44:29.139Z,24.58
2022-08-07T05:46:02.741Z,24.64
2022-08-07T05:47:38.094Z,24.75
2022-08-07T05:49:26.669Z,24.77
2022-08-07T05:50:58.652Z,24.80
2022-08-07T05:52:32.726Z,24.87
2022-08-07T05:54:12.941Z,25.06
2022-08-07T05:56:02.217Z,25.20
2022-08-07T05:57:37.915Z,25.24
2022-08-07T05:59:15.176Z,25.36
2022-08-07T06:00:50.929Z,25.39
2022-08-07T06:02:28.605Z,25.45
2022-08-07T06:04:01.463Z,25.60
2022-08-07T06:05:33.524Z,25.67
2022-08-07T06:07:06.350Z,25.66
2022-08-07T06:08:42.546Z,25.72
2022-08-07T06:10:16.151Z,25.72
2022-08-07T06:11:47.798Z,25.78
2022-08-07T06:13:19.586Z,25.84
2022-08-07T06:15:15.271Z,25.85
2022-08-07T06:16:50.292Z,25.75
2022-08-07T06:18:24.600Z,25.73
2022-08-07T06:20:03.615Z,25.73
2022-08-07T06:22:15.515Z,25.73
2022-08-07T06:24:37.815Z,25.61
2022-08-07T06:25:21.051Z,25.57
2022-08-07T06:26:54.376Z,25.57
2022-08-07T06:28:28.020Z,25.64
2022-08-07T06:30:00.829Z,25.73
2022-08-07T06:31:46.692Z,25.90
2022-08-07T06:33:22.689Z,26.09
2022-08-07T06:34:54.656Z,26.15
2022-08-07T06:36:35.397Z,26.27
2022-08-07T06:38:08.196Z,26.49
2022-08-07T06:40:17.802Z,26.73
2022-08-07T06:42:01.970Z,26.91
2022-08-07T06:43:27.891Z,27.14
2022-08-07T06:45:13.161Z,27.33
2022-08-07T06:46:53.522Z,27.54
2022-08-07T06:48:44.672Z,27.71
2022-08-07T06:50:18.982Z,27.89
2022-08-07T06:51:51.140Z,28.04
2022-08-07T06:55:27.154Z,28.20
2022-08-07T06:55:32.640Z,28.39
2022-08-07T06:57:14.945Z,28.60
2022-08-07T07:00:13.500Z,28.75
2022-08-07T07:00:42.408Z,28.99
2022-08-07T07:02:54.002Z,29.22
2022-08-07T07:04:27.997Z,29.18
2022-08-07T07:06:06.391Z,29.20
2022-08-07T07:07:58.302Z,29.32
2022-08-07T07:09:32.726Z,29.44
2022-08-07T07:11:14.479Z,29.54
2022-08-07T07:13:56.009Z,29.48
2022-08-07T07:15:23.870Z,29.53
2022-08-07T07:16:59.162Z,29.65
2022-08-07T07:18:48.062Z,29.83
2022-08-07T07:20:26.716Z,29.84
2022-08-07T07:22:11.670Z,29.98
2022-08-07T07:24:10.845Z,30.11
2022-08-07T07:26:32.927Z,30.35
2022-08-07T07:27:58.404Z,30.46
2022-08-07T07:29:56.857Z,30.67
2022-08-07T07:31:30.270Z,30.96
2022-08-07T07:33:13.618Z,31.24
2022-08-07T07:34:48.649Z,31.36
2022-08-07T07:36:22.202Z,31.49
2022-08-07T07:38:05.795Z,31.62
2022-08-07T07:39:52.253Z,31.80
2022-08-07T07:41:31.053Z,32.06
2022-08-07T07:43:18.745Z,32.22
2022-08-07T07:45:00.531Z,32.33
2022-08-07T07:46:37.676Z,32.41
2022-08-07T07:48:35.699Z,32.22
2022-08-07T07:50:36.106Z,32.11
2022-08-07T07:52:00.625Z,32.17
2022-08-07T07:53:34.936Z,32.29
2022-08-07T07:55:07.641Z,32.29
2022-08-07T07:56:40.287Z,32.39
2022-08-07T07:58:12.232Z,32.48
2022-08-07T07:59:52.720Z,32.56
2022-08-07T08:02:02.622Z,32.64
2022-08-07T08:04:10.612Z,32.77
2022-08-07T08:05:14.486Z,32.77
2022-08-07T08:06:52.324Z,32.62
2022-08-07T08:08:34.704Z,32.48
2022-08-07T08:10:07.754Z,32.54
2022-08-07T08:11:59.229Z,32.52
2022-08-07T08:13:33.249Z,32.38
2022-08-07T08:15:14.469Z,32.40
2022-08-07T08:16:50.649Z,32.55
2022-08-07T08:18:23.940Z,32.77
2022-08-07T08:20:17.775Z,32.94
2022-08-07T08:22:10.768Z,33.13
2022-08-07T08:24:01.255Z,33.31
2022-08-07T08:25:54.471Z,33.34
2022-08-07T08:27:33.602Z,33.48
2022-08-07T08:29:05.854Z,33.51
2022-08-07T08:30:42.732Z,33.50
2022-08-07T08:32:25.420Z,33.49
2022-08-07T08:34:10.104Z,33.53
2022-08-07T08:35:49.755Z,33.62
2022-08-07T08:38:01.627Z,33.71
2022-08-07T08:39:15.428Z,33.83
2022-08-07T08:40:58.513Z,33.86
2022-08-07T08:42:51.734Z,33.79
2022-08-07T08:44:44.715Z,33.63
2022-08-07T08:46:21.889Z,33.61
2022-08-07T08:48:01.280Z,33.45
2022-08-07T08:50:04.545Z,33.52
2022-08-07T08:52:00.883Z,33.67
2022-08-07T08:54:00.520Z,33.78
2022-08-07T08:55:55.267Z,33.75
2022-08-07T08:57:34.113Z,33.91
2022-08-07T08:59:29.627Z,34.01
2022-08-07T09:01:15.296Z,34.04
2022-08-07T09:02:52.510Z,34.00
2022-08-07T09:04:40.908Z,33.76
2022-08-07T09:06:33.679Z,33.81
2022-08-07T09:08:17.900Z,34.04
2022-08-07T09:10:03.545Z,34.07
2022-08-07T09:11:53.317Z,33.96
2022-08-07T09:13:39.856Z,33.70
2022-08-07T09:16:23.065Z,33.73
2022-08-07T09:17:13.594Z,33.93
2022-08-07T09:18:58.564Z,34.11
2022-08-07T09:20:58.420Z,34.20
2022-08-07T09:24:32.505Z,34.34
2022-08-07T09:24:58.458Z,34.16
2022-08-07T09:26:50.933Z,34.03
2022-08-07T09:30:00.897Z,34.16
2022-08-07T09:30:27.975Z,34.42
2022-08-07T09:32:18.503Z,34.57
2022-08-07T09:34:08.395Z,34.55
2022-08-07T09:36:03.472Z,34.45
2022-08-07T09:37:53.648Z,34.29
2022-08-07T09:39:54.901Z,34.27
2022-08-07T09:41:36.475Z,34.27
2022-08-07T09:44:03.044Z,34.34
2022-08-07T09:47:27.624Z,34.32
2022-08-07T09:47:50.261Z,34.33
2022-08-07T09:50:00.451Z,34.42
2022-08-07T09:52:16.044Z,34.36
2022-08-07T09:53:20.496Z,34.28
2022-08-07T09:54:54.089Z,34.31
2022-08-07T09:56:44.058Z,34.42
2022-08-07T09:58:36.255Z,34.54
2022-08-07T10:00:21.109Z,34.60
2022-08-07T10:02:20.231Z,34.47
2022-08-07T10:04:03.007Z,34.27
2022-08-07T10:06:00.843Z,34.14
2022-08-07T10:07:40.005Z,34.09
2022-08-07T10:09:58.870Z,34.03
2022-08-07T10:12:01.836Z,33.83
2022-08-07T10:13:54.697Z,33.64
2022-08-07T10:15:44.185Z,33.49
2022-08-07T10:17:33.735Z,33.43
2022-08-07T10:19:39.992Z,33.44
2022-08-07T10:21:50.497Z,33.49
2022-08-07T10:24:05.581Z,33.51
2022-08-07T10:25:42.832Z,33.47
2022-08-07T10:27:45.856Z,33.50
2022-08-07T10:29:43.240Z,33.48
2022-08-07T10:31:20.776Z,33.30
2022-08-07T10:33:05.547Z,33.14
2022-08-07T10:34:40.219Z,32.99
2022-08-07T10:36:29.740Z,32.84
2022-08-07T10:38:21.745Z,32.75
2022-08-07T10:40:09.316Z,32.72
2022-08-07T10:42:00.239Z,32.78
2022-08-07T10:43:35.156Z,32.83
2022-08-07T10:45:10.336Z,32.80
2022-08-07T10:46:43.531Z,32.85
2022-08-07T10:48:38.740Z,32.80
2022-08-07T10:50:11.150Z,32.67
2022-08-07T10:52:19.398Z,32.59
2022-08-07T10:54:06.783Z,32.55
2022-08-07T10:55:50.759Z,32.51
2022-08-07T10:57:27.564Z,32.52
2022-08-07T10:59:10.366Z,32.61
2022-08-07T11:00:56.479Z,32.72
2022-08-07T11:02:34.107Z,32.81
2022-08-07T11:04:23.060Z,32.90
2022-08-07T11:06:05.030Z,33.08
2022-08-07T11:07:58.899Z,33.28
2022-08-07T11:10:10.388Z,33.53
2022-08-07T11:11:35.757Z,33.77
2022-08-07T11:14:44.158Z,33.92
2022-08-07T11:15:31.824Z,34.01
2022-08-07T11:17:07.353Z,34.14
2022-08-07T11:18:50.862Z,34.20
2022-08-07T11:20:24.643Z,34.29
2022-08-07T11:22:01.839Z,34.44
2022-08-07T11:23:40.921Z,34.60
2022-08-07T11:25:26.585Z,34.75
2022-08-07T11:27:07.870Z,34.87
2022-08-07T11:28:55.564Z,34.85
2022-08-07T11:30:39.089Z,34.86
2022-08-07T11:32:33.214Z,34.77
2022-08-07T11:34:23.905Z,34.69
2022-08-07T11:36:08.384Z,34.59
2022-08-07T11:37:58.077Z,34.41
2022-08-07T11:40:00.726Z,34.16
2022-08-07T11:42:01.666Z,33.96
2022-08-07T11:43:54.700Z,33.84
2022-08-07T11:45:50.010Z,33.74
2022-08-07T11:47:26.178Z,33.89
2022-08-07T11:49:51.022Z,34.06
2022-08-07T11:51:02.878Z,34.14
2022-08-07T11:52:54.057Z,34.20
2022-08-07T11:54:32.579Z,34.12
2022-08-07T11:56:15.519Z,34.10
2022-08-07T11:58:03.935Z,34.09
2022-08-07T12:00:10.622Z,34.13
2022-08-07T12:02:01.240Z,34.07
2022-08-07T12:03:45.023Z,33.79
2022-08-07T12:05:41.609Z,33.65
2022-08-07T12:07:27.158Z,33.67
2022-08-07T12:09:05.501Z,33.72
2022-08-07T12:10:41.822Z,33.72
2022-08-07T12:12:19.079Z,33.71
2022-08-07T12:13:51.029Z,33.80
2022-08-07T12:15:46.530Z,33.82
2022-08-07T12:17:27.550Z,33.99
2022-08-07T12:19:05.414Z,34.06
2022-08-07T12:20:42.085Z,34.04
2022-08-07T12:22:37.637Z,34.09
2022-08-07T12:24:37.763Z,34.11
2022-08-07T12:26:40.673Z,34.19
2022-08-07T12:28:31.306Z,34.23
2022-08-07T12:30:04.418Z,34.31
2022-08-07T12:32:02.236Z,34.36
2022-08-07T12:33:56.154Z,34.40
2022-08-07T12:35:29.296Z,34.27
2022-08-07T12:37:17.046Z,34.07
2022-08-07T12:38:57.627Z,33.92
2022-08-07T12:40:47.596Z,33.85
2022-08-07T12:42:27.089Z,33.89
2022-08-07T12:44:03.735Z,33.89
2022-08-07T12:45:52.419Z,33.88
2022-08-07T12:47:31.769Z,33.94
2022-08-07T12:49:39.701Z,34.02
2022-08-07T12:51:12.855Z,34.05
2022-08-07T12:53:18.016Z,33.99
2022-08-07T12:55:09.297Z,34.03
2022-08-07T12:56:43.457Z,34.03
2022-08-07T12:58:28.109Z,34.00
2022-08-07T13:00:16.633Z,34.00
2022-08-07T13:02:09.917Z,33.99
2022-08-07T13:03:56.054Z,34.03
2022-08-07T13:06:04.043Z,34.13
2022-08-07T13:08:11.674Z,34.21
2022-08-07T13:10:19.994Z,34.32
2022-08-07T13:12:03.414Z,34.37
2022-08-07T13:13:50.270Z,34.36
2022-08-07T13:15:48.201Z,34.41
2022-08-07T13:17:22.933Z,34.39
2022-08-07T13:19:21.826Z,34.31
2022-08-07T13:21:50.331Z,34.20
2022-08-07T13:24:00.916Z,33.96
2022-08-07T13:25:29.859Z,33.97
2022-08-07T13:27:10.689Z,33.98
2022-08-07T13:28:46.711Z,33.91
2022-08-07T13:30:19.285Z,33.84
2022-08-07T13:32:32.601Z,33.77
2022-08-07T13:34:31.829Z,33.74
2022-08-07T13:36:05.682Z,33.91
2022-08-07T13:37:58.963Z,34.03
2022-08-07T13:40:32.752Z,34.15
2022-08-07T13:41:41.365Z,34.14
2022-08-07T13:43:15.099Z,34.23
2022-08-07T13:45:11.825Z,34.24
2022-08-07T13:46:41.891Z,34.28
2022-08-07T13:48:33.735Z,34.37
2022-08-07T13:50:35.355Z,34.49
2022-08-07T13:52:22.281Z,34.55
2022-08-07T13:54:00.608Z,34.58
2022-08-07T13:55:34.005Z,34.55
2022-08-07T13:57:14.502Z,34.48
2022-08-07T13:59:02.251Z,34.38
2022-08-07T14:00:39.735Z,34.25
2022-08-07T14:02:39.636Z,34.16
2022-08-07T14:04:21.705Z,34.16
2022-08-07T14:06:02.382Z,34.20
2022-08-07T14:07:59.762Z,34.28
2022-08-07T14:10:02.888Z,34.33
2022-08-07T14:11:25.905Z,34.31
2022-08-07T14:13:00.650Z,34.23
2022-08-07T14:14:48.878Z,34.13
2022-08-07T14:16:27.125Z,34.06
2022-08-07T14:18:24.081Z,34.00
2022-08-07T14:20:39.783Z,34.00
2022-08-07T14:22:00.921Z,34.03
2022-08-07T14:24:00.630Z,34.07
2022-08-07T14:25:29.486Z,34.08
2022-08-07T14:28:11.317Z,34.10
2022-08-07T14:30:05.623Z,33.84
2022-08-07T14:30:57.208Z,33.43
2022-08-07T14:32:30.114Z,33.14
2022-08-07T14:34:01.878Z,32.77
2022-08-07T14:35:44.759Z,32.09
2022-08-07T14:37:18.408Z,31.46
2022-08-07T14:38:50.607Z,30.89
2022-08-07T14:40:27.049Z,30.48
2022-08-07T14:42:22.214Z,30.14
2022-08-07T14:43:57.742Z,29.76
2022-08-07T14:45:47.135Z,29.49
2022-08-07T14:47:21.265Z,29.26
2022-08-07T14:48:53.128Z,29.09
2022-08-07T14:50:26.649Z,28.94
2022-08-07T14:54:30.082Z,28.63
2022-08-07T14:55:56.220Z,28.40
2022-08-07T14:57:58.200Z,28.24
2022-08-07T15:01:22.623Z,28.07
2022-08-07T15:02:56.819Z,28.04
2022-08-07T15:04:29.182Z,28.02
2022-08-07T15:07:53.668Z,28.09
2022-08-07T15:09:59.921Z,28.13
2022-08-07T15:11:53.290Z,28.20
2022-08-07T15:13:18.351Z,28.20
2022-08-07T15:14:58.014Z,28.17
2022-08-07T15:16:54.460Z,28.18
2022-08-07T15:18:45.878Z,28.15
2022-08-07T15:20:32.599Z,28.10
2022-08-07T15:22:10.112Z,28.05
2022-08-07T15:25:14.604Z,28.00
2022-08-07T15:25:51.077Z,27.97
2022-08-07T15:27:24.341Z,27.95
2022-08-07T15:30:02.189Z,27.97
2022-08-07T15:31:04.459Z,28.01
2022-08-07T15:34:50.745Z,28.09
2022-08-07T15:37:04.293Z,28.16
2022-08-07T15:38:50.982Z,28.18
2022-08-07T15:40:34.316Z,28.24
2022-08-07T15:42:44.621Z,28.24
2022-08-07T15:44:03.537Z,28.21
2022-08-07T15:45:55.745Z,28.19
2022-08-07T15:48:01.036Z,28.11
2022-08-07T15:49:25.224Z,28.05
2022-08-07T15:51:08.020Z,28.02
2022-08-07T15:52:41.501Z,27.94
2022-08-07T15:54:13.229Z,27.87
2022-08-07T15:56:02.169Z,27.75
2022-08-07T15:57:48.425Z,27.67
2022-08-07T15:59:39.569Z,27.67
2022-08-07T16:01:20.075Z,27.70
2022-08-07T16:02:54.720Z,27.62
2022-08-07T16:04:28.473Z,27.53
2022-08-07T16:06:03.762Z,27.44
2022-08-07T16:08:30.619Z,27.39
2022-08-07T16:09:54.600Z,27.41
2022-08-07T16:11:29.259Z,27.44
2022-08-07T16:13:17.867Z,27.40
2022-08-07T16:14:52.601Z,27.33
2022-08-07T16:16:48.167Z,27.34
2022-08-07T16:18:50.454Z,27.35
2022-08-07T16:20:38.461Z,27.37
2022-08-07T16:22:36.126Z,27.37
2022-08-07T16:24:34.232Z,27.34
2022-08-07T16:26:10.489Z,27.32
2022-08-07T16:28:06.451Z,27.34
2022-08-07T16:30:11.141Z,27.35
2022-08-07T16:31:50.973Z,27.33
2022-08-07T16:34:01.403Z,27.35
2022-08-07T16:35:58.600Z,27.43
2022-08-07T16:38:03.571Z,27.43
2022-08-07T16:39:40.387Z,27.39
2022-08-07T16:41:22.440Z,27.40
2022-08-07T16:42:56.388Z,27.42
2022-08-07T16:45:14.884Z,27.44
2022-08-07T16:47:17.230Z,27.52
2022-08-07T16:50:20.571Z,27.57
2022-08-07T16:51:54.139Z,27.56
2022-08-07T16:54:01.643Z,27.57
2022-08-07T16:55:13.104Z,27.52
2022-08-07T16:57:03.907Z,27.50
2022-08-07T16:59:02.408Z,27.48
2022-08-07T17:00:29.309Z,27.47
2022-08-07T17:02:51.639Z,27.50
2022-08-07T17:04:15.260Z,27.56
2022-08-07T17:06:31.144Z,27.52
2022-08-07T17:08:05.025Z,27.45
2022-08-07T17:10:06.561Z,27.42
2022-08-07T17:12:04.071Z,27.37
2022-08-07T17:14:18.358Z,27.29
2022-08-07T17:15:44.712Z,27.25
2022-08-07T17:17:44.001Z,27.22
2022-08-07T17:20:00.801Z,27.21
2022-08-07T17:21:18.567Z,27.26
2022-08-07T17:23:13.169Z,27.22
2022-08-07T17:24:47.706Z,27.18
2022-08-07T17:26:30.597Z,27.14
2022-08-07T17:28:10.379Z,27.13
2022-08-07T17:30:16.193Z,27.15
2022-08-07T17:31:44.475Z,27.11
2022-08-07T17:34:10.122Z,27.09
2022-08-07T17:35:51.679Z,27.06
2022-08-07T17:38:11.435Z,27.03
2022-08-07T17:39:25.941Z,27.10
2022-08-07T17:42:01.767Z,27.14
2022-08-07T17:44:00.892Z,27.08
2022-08-07T17:45:23.436Z,27.05
2022-08-07T17:47:04.644Z,27.03
2022-08-07T17:48:45.425Z,27.05
2022-08-07T17:50:19.443Z,27.04
2022-08-07T17:52:00.311Z,27.04
2022-08-07T17:54:00.175Z,27.01
2022-08-07T17:55:55.076Z,26.98
2022-08-07T17:57:58.584Z,26.95
2022-08-07T17:59:56.807Z,26.91
2022-08-07T18:01:41.077Z,26.84
2022-08-07T18:04:03.849Z,26.81
2022-08-07T18:06:02.790Z,26.80
2022-08-07T18:07:43.919Z,26.73
2022-08-07T18:09:17.215Z,26.71
2022-08-07T18:12:06.742Z,26.71
2022-08-07T18:12:53.134Z,26.70
2022-08-07T18:14:28.633Z,26.68
2022-08-07T18:16:32.837Z,26.71
2022-08-07T18:18:44.740Z,26.69
2022-08-07T18:21:02.499Z,26.62
2022-08-07T18:22:06.411Z,26.51
2022-08-07T18:23:58.339Z,26.36
2022-08-07T18:25:40.835Z,26.30
2022-08-07T18:27:17.423Z,26.26
2022-08-07T18:28:58.118Z,26.16
2022-08-07T18:30:36.641Z,26.10
2022-08-07T18:32:21.111Z,26.01
2022-08-07T18:34:35.826Z,25.86
2022-08-07T18:36:06.003Z,25.80
2022-08-07T18:38:55.109Z,25.75
2022-08-07T18:40:08.671Z,25.74
2022-08-07T18:41:44.885Z,25.70
2022-08-07T18:43:36.768Z,25.60
2022-08-07T18:45:44.508Z,25.53
2022-08-07T18:47:22.693Z,25.51
2022-08-07T18:49:23.803Z,25.53
2022-08-07T18:50:58.386Z,25.48
2022-08-07T18:52:37.995Z,25.46
2022-08-07T18:54:55.196Z,25.47
2022-08-07T18:56:57.775Z,25.47
2022-08-07T18:58:33.969Z,25.46
2022-08-07T19:00:32.746Z,25.52
2022-08-07T19:02:31.612Z,25.54
2022-08-07T19:04:09.522Z,25.59
2022-08-07T19:06:02.292Z,25.62
2022-08-07T19:07:51.868Z,25.64
2022-08-07T19:09:56.177Z,25.66
2022-08-07T19:11:37.478Z,25.68
2022-08-07T19:13:11.923Z,25.68
2022-08-07T19:14:50.916Z,25.66
2022-08-07T19:17:08.032Z,25.68
2022-08-07T19:18:50.114Z,25.70
2022-08-07T19:20:29.763Z,25.68
2022-08-07T19:22:11.161Z,25.68
2022-08-07T19:23:59.366Z,25.65
2022-08-07T19:26:23.812Z,25.59
2022-08-07T19:30:55.279Z,25.49
2022-08-07T19:30:57.101Z,25.37
2022-08-07T19:32:10.704Z,25.26
2022-08-07T19:33:34.724Z,25.06
2022-08-07T19:35:11.576Z,24.94
2022-08-07T19:36:51.931Z,24.90
2022-08-07T19:38:24.799Z,24.91
2022-08-07T19:40:02.262Z,24.86
2022-08-07T19:41:44.279Z,24.82
2022-08-07T19:43:43.661Z,24.80
2022-08-07T19:46:05.029Z,24.82
2022-08-07T19:47:16.406Z,24.78
2022-08-07T19:48:53.718Z,24.70
2022-08-07T19:50:43.663Z,24.65
2022-08-07T19:52:19.104Z,24.62
2022-08-07T19:54:35.149Z,24.57
2022-08-07T19:55:57.720Z,24.55
2022-08-07T19:58:00.065Z,24.62
2022-08-07T19:59:39.878Z,24.72
2022-08-07T20:01:15.586Z,24.81
2022-08-07T20:02:52.048Z,24.85
2022-08-07T20:04:32.204Z,24.88
2022-08-07T20:06:15.244Z,24.93
2022-08-07T20:07:50.905Z,24.93
2022-08-07T20:10:36.475Z,24.87
2022-08-07T20:11:34.334Z,24.88
2022-08-07T20:13:07.826Z,24.88
2022-08-07T20:14:58.562Z,24.87
2022-08-07T20:16:35.434Z,24.87
2022-08-07T20:18:14.541Z,24.87
2022-08-07T20:19:58.462Z,24.88
2022-08-07T20:21:46.595Z,24.88
2022-08-07T20:23:40.644Z,24.88
2022-08-07T20:25:12.852Z,24.90
2022-08-07T20:26:54.593Z,24.93
2022-08-07T20:28:29.618Z,24.93
2022-08-07T20:30:02.107Z,24.89
2022-08-07T20:31:41.773Z,24.81
2022-08-07T20:33:36.125Z,24.77
2022-08-07T20:35:11.110Z,24.71
2022-08-07T20:36:51.928Z,24.68
2022-08-07T20:38:24.799Z,24.64
2022-08-07T20:40:03.857Z,24.60
2022-08-07T20:41:38.400Z,24.52
2022-08-07T20:43:19.407Z,24.45
2022-08-07T20:44:51.610Z,24.37
2022-08-07T20:46:32.344Z,24.35
2022-08-07T20:48:06.344Z,24.27
2022-08-07T20:50:00.833Z,24.19
2022-08-07T20:51:36.077Z,24.07
2022-08-07T20:53:13.761Z,23.98
2022-08-07T20:54:53.062Z,23.96
2022-08-07T20:56:26.850Z,23.94
2022-08-07T20:57:59.861Z,23.89
2022-08-07T21:00:06.703Z,23.84
2022-08-07T21:01:26.281Z,23.81
2022-08-07T21:03:01.868Z,23.78
2022-08-07T21:04:33.831Z,23.74
2022-08-07T21:06:21.564Z,23.71
2022-08-07T21:07:58.726Z,23.68
2022-08-07T21:09:35.417Z,23.67
2022-08-07T21:11:40.151Z,23.67
2022-08-07T21:13:18.324Z,23.71
2022-08-07T21:14:56.672Z,23.74
2022-08-07T21:16:35.111Z,23.80
2022-08-07T21:18:17.331Z,23.86
2022-08-07T21:20:04.962Z,23.89
2022-08-07T21:21:57.261Z,23.91
2022-08-07T21:23:34.680Z,23.94
2022-08-07T21:25:30.323Z,23.94
2022-08-07T21:27:23.565Z,23.94
2022-08-07T21:28:59.627Z,23.88
2022-08-07T21:30:50.377Z,23.88
2022-08-07T21:32:42.653Z,23.84
2022-08-07T21:34:26.661Z,23.81
2022-08-07T21:36:31.103Z,23.73
2022-08-07T21:38:06.095Z,23.72
2022-08-07T21:39:57.367Z,23.66
2022-08-07T21:41:38.301Z,23.59
2022-08-07T21:43:47.245Z,23.53
2022-08-07T21:46:07.868Z,23.51
2022-08-07T21:47:59.456Z,23.47
2022-08-07T21:49:40.560Z,23.45
2022-08-07T21:51:28.251Z,23.43
2022-08-07T21:53:10.207Z,23.44
2022-08-07T21:54:48.418Z,23.43
2022-08-07T21:56:37.845Z,23.43
2022-08-07T21:58:30.637Z,23.39
2022-08-07T22:00:22.905Z,23.35
2022-08-07T22:02:11.523Z,23.27
2022-08-07T22:03:48.460Z,23.22
2022-08-07T22:05:21.997Z,23.22
2022-08-07T22:07:15.175Z,23.20
2022-08-07T22:08:50.807Z,23.21
2022-08-07T22:10:26.074Z,23.24
2022-08-07T22:12:06.811Z,23.24
2022-08-07T22:13:51.823Z,23.28
2022-08-07T22:16:44.881Z,23.31
2022-08-07T22:17:21.197Z,23.33
2022-08-07T22:18:55.937Z,23.35
2022-08-07T22:20:29.458Z,23.33
2022-08-07T22:22:17.670Z,23.26
2022-08-07T22:23:58.848Z,23.15
2022-08-07T22:25:36.321Z,23.06
2022-08-07T22:28:03.210Z,23.02
2022-08-07T22:29:34.082Z,23.02
2022-08-07T22:31:56.357Z,23.02
2022-08-07T22:33:52.521Z,23.00
2022-08-07T22:35:14.288Z,22.97
2022-08-07T22:36:52.551Z,22.97
2022-08-07T22:38:47.930Z,22.96
2022-08-07T22:40:30.667Z,22.94
2022-08-07T22:42:19.053Z,22.94
2022-08-07T22:43:56.446Z,22.91
2022-08-07T22:46:21.748Z,22.93
2022-08-07T22:47:37.217Z,22.86
2022-08-07T22:49:33.878Z,22.80
2022-08-07T22:51:12.573Z,22.73
2022-08-07T22:52:46.292Z,22.72
2022-08-07T22:54:27.543Z,22.68
2022-08-07T22:56:01.914Z,22.61
2022-08-07T22:57:54.507Z,22.55
2022-08-07T22:59:32.615Z,22.46